Time;durP1;ratioP1;P1;durP2;ratioP2;P2;SDS_P1;SDS_P2;PMS_P1;PMS_P2;Temp;Humidity;BMP_temperature;BMP_pressure;BME280_temperature;BME280_humidity;BME280_pressure;Samples;Min_cycle;Max_cycle;Signal;HPM_P1;HPM_P2
2022/08/19 00:01:22;;;;;;;;;;;;;;;;;;5070424;28;19920;-93
2022/08/19 00:03:48;;;;;;;;;;;;;;;;;;5075859;28;20379;-91
2022/08/19 00:06:14;;;;;;;;;;;;;;;;;;5057077;28;19927;-92
2022/08/19 00:08:39;;;;;;;;;;;;;;;;;;5072408;28;19916;-92
2022/08/19 00:11:05;;;;;;;;;;;;;;;;;;5061199;28;19966;-92
2022/08/19 00:13:30;;;;;;;;;;;;;;;;;;5174264;22;19976;-92
2022/08/19 00:15:58;;;;;;;;;;;;;;;;;;5116704;28;19960;-91
2022/08/19 00:18:23;;;;;;;;;;;;;;;;;;5127457;27;19922;-93
2022/08/19 00:20:49;;;;;;;;;;;;;;;;;;5120375;27;19916;-92
2022/08/19 00:23:14;;;;;;;;;;;;;;;;;;5102798;28;19937;-92
2022/08/19 00:25:40;;;;;;;;;;;;;;;;;;5104688;28;19963;-92
2022/08/19 00:28:06;;;;;;;;;;;;;;;;;;5103204;28;20359;-92
2022/08/19 00:30:31;;;;;;;;;;;;;;;;;;5113801;28;20019;-92
2022/08/19 00:32:57;;;;;;;;;;;;;;;;;;5121765;27;20370;-92
2022/08/19 00:35:22;;;;;;;;;;;;;;;;;;5097948;28;20387;-93
2022/08/19 00:37:49;;;;;;;;;;;;;;;;;;5112764;27;19925;-93
2022/08/19 00:40:15;;;;;;;;;;;;;;;;;;5119832;27;19942;-92
2022/08/19 00:42:41;;;;;;;;;;;;;;;;;;5097401;28;20367;-92
2022/08/19 00:45:11;;;;;;;;;;;;;;;;;;5116063;28;19922;-91
2022/08/19 00:47:37;;;;;;;;;;;;;;;;;;5097462;28;20282;-91
2022/08/19 00:50:03;;;;;;;;;;;;;;;;;;5102863;28;19926;-91
2022/08/19 00:52:40;;;;;;;;;;;;;;;;;;5131013;27;20018;-92
2022/08/19 00:55:08;;;;;;;;;;;;;;;;;;5104438;27;20006;-94
2022/08/19 00:57:36;;;;;;;;;;;;;;;;;;5111749;28;19920;-92
2022/08/19 01:00:05;;;;;;;;;;;;;;;;;;5099996;27;19927;-92
2022/08/19 01:02:32;;;;;;;;;;;;;;;;;;5135248;27;20308;-91
2022/08/19 01:04:58;;;;;;;;;;;;;;;;;;5099317;28;19916;-93
2022/08/19 01:07:24;;;;;;;;;;;;;;;;;;5115271;28;19916;-92
2022/08/19 01:09:50;;;;;;;;;;;;;;;;;;5115330;27;20354;-92
2022/08/19 01:12:15;;;;;;;;;;;;;;;;;;5117364;27;19924;-92
2022/08/19 01:14:41;;;;;;;;;;;;;;;;;;5076879;28;19986;-92
2022/08/19 01:17:10;;;;;;;;;;;;;;;;;;5099081;28;19919;-90
2022/08/19 01:19:37;;;;;;;;;;;;;;;;;;5103707;28;19986;-91
2022/08/19 01:22:10;;;;;;;;;;;;;;;;;;5097383;27;20006;-93
2022/08/19 01:24:36;;;;;;;;;;;;;;;;;;5093739;28;19916;-92
2022/08/19 01:27:03;;;;;;;;;;;;;;;;;;5095843;28;20192;-92
2022/08/19 01:29:29;;;;;;;;;;;;;;;;;;5103177;28;20007;-92
2022/08/19 01:31:54;;;;;;;;;;;;;;;;;;5107132;27;19939;-92
2022/08/19 01:34:20;;;;;;;;;;;;;;;;;;5093499;28;19963;-92
2022/08/19 01:36:47;;;;;;;;;;;;;;;;;;5093350;28;20015;-93
2022/08/19 01:39:17;;;;;;;;;;;;;;;;;;5096589;28;19926;-94
2022/08/19 01:41:42;;;;;;;;;;;;;;;;;;5099116;28;19920;-92
2022/08/19 01:44:09;;;;;;;;;;;;;;;;;;5098331;28;20279;-93
2022/08/19 01:46:35;;;;;;;;;;;;;;;;;;5096904;28;20483;-93
2022/08/19 01:49:02;;;;;;;;;;;;;;;;;;5116069;28;20271;-93
2022/08/19 01:51:28;;;;;;;;;;;;;;;;;;5097511;28;19923;-92
2022/08/19 01:53:53;;;;;;;;;;;;;;;;;;5097528;28;19916;-92
2022/08/19 01:56:19;;;;;;;;;;;;;;;;;;5097294;28;19922;-92
2022/08/19 01:58:50;;;;;;;;;;;;;;;;;;5119025;28;19916;-93
2022/08/19 02:01:16;;;;;;;;;;;;;;;;;;5107676;28;19931;-94
2022/08/19 02:03:41;;;;;;;;;;;;;;;;;;5107426;28;19924;-93
2022/08/19 02:06:07;;;;;;;;;;;;;;;;;;5111002;28;19934;-93
2022/08/19 02:08:34;;;;;;;;;;;;;;;;;;5116391;27;19922;-92
2022/08/19 02:11:00;;;;;;;;;;;;;;;;;;5101250;27;19920;-92
2022/08/19 02:13:26;;;;;;;;;;;;;;;;;;5093873;28;19976;-93
2022/08/19 02:15:51;;;;;;;;;;;;;;;;;;5110286;27;20037;-92
2022/08/19 02:18:17;;;;;;;;;;;;;;;;;;5096501;28;20000;-93
2022/08/19 02:20:43;;;;;;;;;;;;;;;;;;5114201;27;19924;-93
2022/08/19 02:23:10;;;;;;;;;;;;;;;;;;5098903;28;19959;-91
2022/08/19 02:25:35;;;;;;;;;;;;;;;;;;5096241;28;20436;-92
2022/08/19 02:28:01;;;;;;;;;;;;;;;;;;5096410;28;19951;-93
2022/08/19 02:30:27;;;;;;;;;;;;;;;;;;5099198;28;19966;-92
2022/08/19 02:32:53;;;;;;;;;;;;;;;;;;5105526;28;19999;-93
2022/08/19 02:35:18;;;;;;;;;;;;;;;;;;5113472;27;20421;-93
2022/08/19 02:40:28;;;;;;;;;;;;;;;;;;5113433;28;19964;-92
2022/08/19 02:45:09;;;;;;;;;;;;;;;;;;5059749;27;2863179;-92
2022/08/19 02:47:34;;;;;;;;;;;;;;;;;;5144984;27;19928;-93
2022/08/19 02:50:00;;;;;;;;;;;;;;;;;;5146458;27;19960;-92
2022/08/19 02:52:27;;;;;;;;;;;;;;;;;;5121098;27;19930;-91
2022/08/19 02:54:52;;;;;;;;;;;;;;;;;;5147455;27;19923;-91
2022/08/19 02:57:17;;;;;;;;;;;;;;;;;;5145644;27;19968;-91
2022/08/19 02:59:43;;;;;;;;;;;;;;;;;;5146600;27;19941;-91
2022/08/19 03:02:08;;;;;;;;;;;;;;;;;;5145880;27;19926;-91
2022/08/19 03:04:34;;;;;;;;;;;;;;;;;;5146215;27;19923;-91
2022/08/19 03:06:59;;;;;;;;;;;;;;;;;;5147330;27;19919;-93
2022/08/19 03:09:25;;;;;;;;;;;;;;;;;;5127316;27;19982;-91
2022/08/19 03:11:50;;;;;;;;;;;;;;;;;;5147246;27;19930;-93
2022/08/19 03:14:16;;;;;;;;;;;;;;;;;;5145606;27;19919;-92
2022/08/19 03:16:44;;;;;;;;;;;;;;;;;;5123284;27;20001;-91
2022/08/19 03:19:09;;;;;;;;;;;;;;;;;;5129108;27;19919;-92
2022/08/19 03:21:35;;;;;;;;;;;;;;;;;;5148064;27;19926;-92
2022/08/19 03:24:01;;;;;;;;;;;;;;;;;;5127105;27;19931;-92
2022/08/19 03:26:28;;;;;;;;;;;;;;;;;;5146948;27;20006;-93
2022/08/19 03:28:53;;;;;;;;;;;;;;;;;;5127642;27;19915;-93
2022/08/19 03:31:21;;;;;;;;;;;;;;;;;;5127845;27;19922;-91
2022/08/19 03:33:49;;;;;;;;;;;;;;;;;;5146845;27;19943;-93
2022/08/19 03:36:17;;;;;;;;;;;;;;;;;;5128302;27;20003;-92
2022/08/19 03:38:48;;;;;;;;;;;;;;;;;;5127314;27;19931;-93
2022/08/19 03:41:15;;;;;;;;;;;;;;;;;;5137303;27;19930;-94
2022/08/19 03:43:41;;;;;;;;;;;;;;;;;;5144782;27;20243;-92
2022/08/19 03:46:11;;;;;;;;;;;;;;;;;;5127553;27;19919;-91
2022/08/19 03:48:38;;;;;;;;;;;;;;;;;;5126667;27;19923;-92
2022/08/19 03:51:03;;;;;;;;;;;;;;;;;;5126777;27;19915;-92
2022/08/19 03:53:29;;;;;;;;;;;;;;;;;;5125671;27;19927;-91
2022/08/19 03:55:55;;;;;;;;;;;;;;;;;;5116190;27;20342;-93
2022/08/19 03:58:21;;;;;;;;;;;;;;;;;;5113462;27;19923;-93
2022/08/19 04:03:18;;;;;;;;;;;;;;;;;;5093418;28;19932;-93
2022/08/19 04:05:44;;;;;;;;;;;;;;;;;;5087110;28;20431;-92
2022/08/19 04:08:09;;;;;;;;;;;;;;;;;;5081741;28;19920;-92
2022/08/19 04:10:36;;;;;;;;;;;;;;;;;;5096353;28;20279;-91
2022/08/19 04:13:01;;;;;;;;;;;;;;;;;;5093794;28;19916;-92
2022/08/19 04:15:28;;;;;;;;;;;;;;;;;;5090220;28;19938;-91
2022/08/19 04:17:54;;;;;;;;;;;;;;;;;;5081983;28;19985;-91
2022/08/19 04:20:19;;;;;;;;;;;;;;;;;;5087855;28;20049;-91
2022/08/19 04:22:45;;;;;;;;;;;;;;;;;;5077752;28;19924;-93
2022/08/19 04:25:10;;;;;;;;;;;;;;;;;;5077173;28;19923;-93
2022/08/19 04:27:36;;;;;;;;;;;;;;;;;;5080136;28;19920;-93
2022/08/19 04:30:01;;;;;;;;;;;;;;;;;;5066829;28;20003;-92
2022/08/19 04:32:27;;;;;;;;;;;;;;;;;;5092954;28;19926;-92
2022/08/19 04:34:53;;;;;;;;;;;;;;;;;;5086111;28;20374;-93
2022/08/19 04:37:18;;;;;;;;;;;;;;;;;;5081700;28;19970;-92
2022/08/19 04:42:38;;;;;;;;;;;;;;;;;;5071778;28;19928;-92
2022/08/19 04:45:09;;;;;;;;;;;;;;;;;;5098844;28;19967;-91
2022/08/19 04:47:36;;;;;;;;;;;;;;;;;;5091477;28;19987;-92
2022/08/19 04:50:02;;;;;;;;;;;;;;;;;;5093082;28;19916;-91
2022/08/19 04:52:28;;;;;;;;;;;;;;;;;;5085441;28;19916;-93
2022/08/19 04:54:55;;;;;;;;;;;;;;;;;;5088114;28;20311;-92
2022/08/19 04:57:21;;;;;;;;;;;;;;;;;;5057631;28;19916;-92
2022/08/19 04:59:46;;;;;;;;;;;;;;;;;;5075855;28;19923;-91
2022/08/19 05:02:11;;;;;;;;;;;;;;;;;;5069880;28;20388;-90
2022/08/19 05:04:39;;;;;;;;;;;;;;;;;;5073263;28;19925;-92
2022/08/19 05:07:04;;;;;;;;;;;;;;;;;;5075899;28;19925;-92
2022/08/19 05:09:30;;;;;;;;;;;;;;;;;;5081909;28;19921;-93
2022/08/19 05:11:55;;;;;;;;;;;;;;;;;;5079525;28;19924;-92
2022/08/19 05:14:21;;;;;;;;;;;;;;;;;;5070619;28;20125;-92
2022/08/19 05:16:47;;;;;;;;;;;;;;;;;;5068216;28;19950;-93
2022/08/19 05:25:11;;;;;;;;;;;;;;;;;;5051070;28;19927;-93
2022/08/19 05:27:37;;;;;;;;;;;;;;;;;;5048985;28;19983;-92
2022/08/19 05:30:03;;;;;;;;;;;;;;;;;;5038962;28;19960;-92
2022/08/19 05:32:28;;;;;;;;;;;;;;;;;;5054083;28;19963;-93
2022/08/19 05:34:54;;;;;;;;;;;;;;;;;;5033671;28;19925;-92
2022/08/19 05:37:20;;;;;;;;;;;;;;;;;;5032943;28;19970;-92
2022/08/19 05:39:45;;;;;;;;;;;;;;;;;;5054234;28;20787;-92
2022/08/19 05:42:11;;;;;;;;;;;;;;;;;;5038817;28;19962;-93
2022/08/19 05:44:44;;;;;;;;;;;;;;;;;;5056723;28;20339;-92
2022/08/19 05:47:11;;;;;;;;;;;;;;;;;;5034417;28;19921;-93
2022/08/19 05:49:37;;;;;;;;;;;;;;;;;;5031652;28;19940;-93
2022/08/19 05:52:06;;;;;;;;;;;;;;;;;;5048791;28;19975;-93
2022/08/19 05:54:32;;;;;;;;;;;;;;;;;;5045660;28;19920;-92
2022/08/19 05:57:00;;;;;;;;;;;;;;;;;;5071826;28;19917;-92
2022/08/19 05:59:25;;;;;;;;;;;;;;;;;;5073380;28;20326;-93
2022/08/19 06:01:52;;;;;;;;;;;;;;;;;;5072276;28;19931;-94
2022/08/19 06:04:19;;;;;;;;;;;;;;;;;;5073172;28;20356;-92
2022/08/19 06:06:47;;;;;;;;;;;;;;;;;;5071946;28;20019;-93
2022/08/19 06:09:12;;;;;;;;;;;;;;;;;;5072192;28;19959;-91
2022/08/19 06:11:41;;;;;;;;;;;;;;;;;;5072376;28;19916;-92
2022/08/19 06:14:08;;;;;;;;;;;;;;;;;;5072460;28;19917;-93
2022/08/19 06:16:35;;;;;;;;;;;;;;;;;;5070974;28;19982;-93
2022/08/19 06:19:01;;;;;;;;;;;;;;;;;;5065621;28;20291;-93
2022/08/19 06:21:28;;;;;;;;;;;;;;;;;;5069238;28;19924;-93
2022/08/19 06:26:58;;;;;;;;;;;;;;;;;;5061061;22;19932;-94
2022/08/19 06:29:25;;;;;;;;;;;;;;;;;;5051438;28;20019;-94
2022/08/19 06:31:53;;;;;;;;;;;;;;;;;;5053167;28;20277;-93
2022/08/19 06:34:21;;;;;;;;;;;;;;;;;;5053311;28;19928;-92
2022/08/19 06:36:48;;;;;;;;;;;;;;;;;;5052135;28;20303;-92
2022/08/19 06:39:16;;;;;;;;;;;;;;;;;;5051631;28;19942;-91
2022/08/19 06:41:43;;;;;;;;;;;;;;;;;;5053517;28;19920;-93
2022/08/19 06:44:08;;;;;;;;;;;;;;;;;;5069412;28;19916;-91
2022/08/19 06:46:34;;;;;;;;;;;;;;;;;;5053104;28;19947;-92
2022/08/19 06:49:02;;;;;;;;;;;;;;;;;;5053117;28;20144;-93
2022/08/19 06:51:28;;;;;;;;;;;;;;;;;;5050908;28;20014;-93
2022/08/19 06:53:54;;;;;;;;;;;;;;;;;;5053063;28;20020;-93
2022/08/19 06:56:24;;;;;;;;;;;;;;;;;;5051439;28;20426;-91
2022/08/19 06:58:52;;;;;;;;;;;;;;;;;;5051854;28;19925;-92
2022/08/19 07:01:18;;;;;;;;;;;;;;;;;;5047951;28;20004;-92
2022/08/19 07:03:43;;;;;;;;;;;;;;;;;;5032976;28;19924;-92
2022/08/19 07:06:11;;;;;;;;;;;;;;;;;;5031993;28;19924;-93
2022/08/19 07:08:37;;;;;;;;;;;;;;;;;;5041069;28;20365;-92
2022/08/19 07:11:06;;;;;;;;;;;;;;;;;;5051706;28;19964;-94
2022/08/19 07:13:33;;;;;;;;;;;;;;;;;;5050622;28;19935;-93
2022/08/19 07:16:02;;;;;;;;;;;;;;;;;;5052858;28;19917;-94
2022/08/19 07:18:27;;;;;;;;;;;;;;;;;;5049100;28;19925;-94
2022/08/19 07:21:06;;;;;;;;;;;;;;;;;;5045553;28;20287;-93
2022/08/19 07:23:31;;;;;;;;;;;;;;;;;;5077355;22;19935;-93
2022/08/19 07:25:57;;;;;;;;;;;;;;;;;;5075187;28;19920;-93
2022/08/19 07:28:22;;;;;;;;;;;;;;;;;;5074849;28;19967;-92
2022/08/19 07:30:49;;;;;;;;;;;;;;;;;;5076714;28;20053;-93
2022/08/19 07:33:15;;;;;;;;;;;;;;;;;;5078876;28;20351;-93
2022/08/19 07:35:40;;;;;;;;;;;;;;;;;;5096549;28;19938;-92
2022/08/19 07:38:06;;;;;;;;;;;;;;;;;;5086457;28;19916;-92
2022/08/19 07:40:31;;;;;;;;;;;;;;;;;;5083861;28;19945;-93
2022/08/19 07:42:57;;;;;;;;;;;;;;;;;;5094736;28;19962;-93
2022/08/19 07:45:22;;;;;;;;;;;;;;;;;;5095611;28;19923;-93
2022/08/19 07:47:47;;;;;;;;;;;;;;;;;;5093668;28;19924;-92
2022/08/19 07:50:13;;;;;;;;;;;;;;;;;;5058510;28;19975;-93
2022/08/19 07:52:39;;;;;;;;;;;;;;;;;;5058504;28;19925;-92
2022/08/19 07:55:06;;;;;;;;;;;;;;;;;;5060178;28;19921;-93
2022/08/19 07:57:31;;;;;;;;;;;;;;;;;;5058094;28;19925;-93
2022/08/19 07:59:57;;;;;;;;;;;;;;;;;;5085401;28;19916;-93
2022/08/19 08:02:22;;;;;;;;;;;;;;;;;;5087397;28;19920;-93
2022/08/19 08:10:16;;;;;;;;;;;;;;;;;;5089998;28;19927;-93
2022/08/19 08:12:41;;;;;;;;;;;;;;;;;;5093377;28;20015;-93
2022/08/19 08:15:08;;;;;;;;;;;;;;;;;;5093859;28;20440;-93
2022/08/19 08:17:36;;;;;;;;;;;;;;;;;;5095808;28;19939;-93
2022/08/19 08:20:02;;;;;;;;;;;;;;;;;;5078423;28;20272;-93
2022/08/19 08:25:14;;;;;;;;;;;;;;;;;;5087875;28;19978;-93
2022/08/19 08:27:40;;;;;;;;;;;;;;;;;;5095782;28;19923;-93
2022/08/19 08:30:09;;;;;;;;;;;;;;;;;;5077595;28;19947;-92
2022/08/19 08:32:34;;;;;;;;;;;;;;;;;;5075120;28;19920;-93
2022/08/19 08:35:00;;;;;;;;;;;;;;;;;;5064971;28;21109;-93
2022/08/19 08:37:25;;;;;;;;;;;;;;;;;;5067112;28;19924;-93
2022/08/19 08:39:51;;;;;;;;;;;;;;;;;;5083858;28;20342;-93
2022/08/19 08:42:27;;;;;;;;;;;;;;;;;;5079263;28;19916;-93
2022/08/19 08:44:52;;;;;;;;;;;;;;;;;;5080690;28;19973;-94
2022/08/19 08:47:19;;;;;;;;;;;;;;;;;;5084315;28;20014;-94
2022/08/19 08:49:48;;;;;;;;;;;;;;;;;;5078806;28;19920;-93
2022/08/19 08:52:46;;;;;;;;;;;;;;;;;;5092913;28;19920;-93
2022/08/19 08:55:45;;;;;;;;;;;;;;;;;;5024733;22;19923;-94
2022/08/19 08:58:17;;;;;;;;;;;;;;;;;;5007638;28;19960;-93
2022/08/19 09:00:45;;;;;;;;;;;;;;;;;;4997374;28;19926;-94
2022/08/19 09:03:19;;;;;;;;;;;;;;;;;;4997088;28;20316;-93
2022/08/19 09:06:00;;;;;;;;;;;;;;;;;;4996831;28;20392;-93
2022/08/19 09:08:34;;;;;;;;;;;;;;;;;;4997741;28;19971;-94
2022/08/19 09:11:00;;;;;;;;;;;;;;;;;;5004675;28;20388;-93
2022/08/19 09:13:36;;;;;;;;;;;;;;;;;;5001753;28;20012;-94
2022/08/19 09:16:20;;;;;;;;;;;;;;;;;;5009511;28;20005;-95
2022/08/19 09:18:52;;;;;;;;;;;;;;;;;;5005198;28;20020;-93
2022/08/19 09:21:18;;;;;;;;;;;;;;;;;;5016104;28;19918;-94
2022/08/19 09:23:44;;;;;;;;;;;;;;;;;;5013339;28;20012;-92
2022/08/19 09:26:13;;;;;;;;;;;;;;;;;;5011493;28;19917;-93
2022/08/19 09:28:43;;;;;;;;;;;;;;;;;;5006851;28;19960;-93
2022/08/19 09:31:08;;;;;;;;;;;;;;;;;;5018814;28;19952;-94
2022/08/19 09:33:34;;;;;;;;;;;;;;;;;;4990571;28;19943;-93
2022/08/19 09:36:04;;;;;;;;;;;;;;;;;;4993671;28;20289;-94
2022/08/19 09:38:29;;;;;;;;;;;;;;;;;;4987568;28;19920;-93
2022/08/19 09:40:55;;;;;;;;;;;;;;;;;;4963274;28;20009;-91
2022/08/19 09:43:21;;;;;;;;;;;;;;;;;;4998421;28;20746;-92
2022/08/19 09:45:47;;;;;;;;;;;;;;;;;;4994674;28;20055;-91
2022/08/19 09:48:12;;;;;;;;;;;;;;;;;;4995193;28;19926;-91
2022/08/19 09:50:38;;;;;;;;;;;;;;;;;;4976891;28;19925;-93
2022/08/19 09:53:05;;;;;;;;;;;;;;;;;;4976689;28;19925;-91
2022/08/19 09:55:31;;;;;;;;;;;;;;;;;;4994467;28;19929;-91
2022/08/19 09:57:56;;;;;;;;;;;;;;;;;;4997298;28;19925;-90
2022/08/19 10:00:22;;;;;;;;;;;;;;;;;;4984172;28;19921;-89
2022/08/19 10:02:47;;;;;;;;;;;;;;;;;;5001128;28;19962;-91
2022/08/19 10:07:57;;;;;;;;;;;;;;;;;;5001811;28;19936;-91
2022/08/19 10:10:22;;;;;;;;;;;;;;;;;;4998079;28;20280;-90
2022/08/19 10:12:48;;;;;;;;;;;;;;;;;;4999890;28;20277;-89
2022/08/19 10:15:14;;;;;;;;;;;;;;;;;;5004734;28;20320;-91
2022/08/19 10:17:39;;;;;;;;;;;;;;;;;;5003864;28;19917;-90
2022/08/19 10:20:04;;;;;;;;;;;;;;;;;;4985325;28;19996;-88
2022/08/19 10:22:30;;;;;;;;;;;;;;;;;;5007082;28;19917;-90
2022/08/19 10:24:56;;;;;;;;;;;;;;;;;;5012626;28;19925;-90
2022/08/19 10:27:21;;;;;;;;;;;;;;;;;;4985876;28;20029;-91
2022/08/19 10:29:47;;;;;;;;;;;;;;;;;;4990338;28;20289;-90
2022/08/19 10:32:15;;;;;;;;;;;;;;;;;;4990175;28;19953;-90
2022/08/19 10:34:41;;;;;;;;;;;;;;;;;;4986597;28;20313;-91
2022/08/19 10:37:06;;;;;;;;;;;;;;;;;;5011257;28;19931;-90
2022/08/19 10:39:33;;;;;;;;;;;;;;;;;;5027084;28;19918;-91
2022/08/19 10:41:58;;;;;;;;;;;;;;;;;;4998109;28;19939;-93
2022/08/19 10:44:24;;;;;;;;;;;;;;;;;;5015763;28;20327;-91
2022/08/19 10:46:50;;;;;;;;;;;;;;;;;;5016855;28;19925;-94
2022/08/19 10:49:16;;;;;;;;;;;;;;;;;;4998820;28;19940;-91
2022/08/19 10:57:03;;;;;;;;;;;;;;;;;;5521312;22;19925;-90
2022/08/19 10:59:29;;;;;;;;;;;;;;;;;;5008784;28;19917;-93
2022/08/19 11:02:01;;;;;;;;;;;;;;;;;;5001137;28;20289;-92
2022/08/19 11:04:27;;;;;;;;;;;;;;;;;;5016532;28;19921;-92
2022/08/19 11:06:52;;;;;;;;;;;;;;;;;;5019955;28;19936;-91
2022/08/19 11:09:19;;;;;;;;;;;;;;;;;;5029342;28;19952;-91
2022/08/19 11:11:45;;;;;;;;;;;;;;;;;;5023557;28;19979;-90
2022/08/19 11:14:12;;;;;;;;;;;;;;;;;;5003034;28;19963;-91
2022/08/19 11:16:38;;;;;;;;;;;;;;;;;;5019521;28;19922;-91
2022/08/19 11:19:05;;;;;;;;;;;;;;;;;;5017253;28;19921;-90
2022/08/19 11:21:33;;;;;;;;;;;;;;;;;;4999040;28;19921;-90
2022/08/19 11:24:00;;;;;;;;;;;;;;;;;;5016951;28;19921;-90
2022/08/19 11:26:26;;;;;;;;;;;;;;;;;;5001658;28;20016;-91
2022/08/19 11:28:54;;;;;;;;;;;;;;;;;;5018542;28;19965;-92
2022/08/19 11:31:20;;;;;;;;;;;;;;;;;;5016877;28;19918;-90
2022/08/19 11:33:46;;;;;;;;;;;;;;;;;;5020639;28;19924;-92
2022/08/19 11:39:14;;;;;;;;;;;;;;;;;;5067694;22;19995;-90
2022/08/19 11:41:40;;;;;;;;;;;;;;;;;;5042350;28;19921;-90
2022/08/19 11:44:07;;;;;;;;;;;;;;;;;;5060315;28;19917;-90
2022/08/19 11:46:33;;;;;;;;;;;;;;;;;;5050111;28;19927;-91
2022/08/19 11:49:00;;;;;;;;;;;;;;;;;;5042835;28;19912;-91
2022/08/19 11:51:26;;;;;;;;;;;;;;;;;;5051061;28;19917;-90
2022/08/19 11:54:03;;;;;;;;;;;;;;;;;;5058108;22;19925;-91
2022/08/19 11:59:18;;;;;;;;;;;;;;;;;;5034821;22;19930;-91
2022/08/19 12:01:49;;;;;;;;;;;;;;;;;;4998310;28;20365;-90
2022/08/19 12:04:15;;;;;;;;;;;;;;;;;;5025027;28;19917;-92
2022/08/19 12:06:40;;;;;;;;;;;;;;;;;;5011698;28;19944;-90
2022/08/19 12:09:10;;;;;;;;;;;;;;;;;;5020403;28;19924;-92
2022/08/19 12:11:36;;;;;;;;;;;;;;;;;;4996689;28;19929;-92
2022/08/19 12:14:02;;;;;;;;;;;;;;;;;;5024095;28;19970;-92
2022/08/19 12:16:30;;;;;;;;;;;;;;;;;;5017461;28;19932;-92
2022/08/19 12:18:55;;;;;;;;;;;;;;;;;;5018349;28;20387;-92
2022/08/19 12:21:27;;;;;;;;;;;;;;;;;;5018123;28;19918;-94
2022/08/19 12:23:54;;;;;;;;;;;;;;;;;;5035925;28;19925;-92
2022/08/19 12:26:20;;;;;;;;;;;;;;;;;;5018471;28;19917;-92
2022/08/19 12:28:47;;;;;;;;;;;;;;;;;;5019764;28;19921;-93
2022/08/19 12:31:13;;;;;;;;;;;;;;;;;;5022135;28;19921;-93
2022/08/19 12:33:49;;;;;;;;;;;;;;;;;;5022410;28;19917;-93
2022/08/19 12:36:15;;;;;;;;;;;;;;;;;;5036096;28;19923;-92
2022/08/19 12:38:41;;;;;;;;;;;;;;;;;;5003023;28;19917;-92
2022/08/19 12:41:11;;;;;;;;;;;;;;;;;;5018096;28;20032;-92
2022/08/19 12:43:37;;;;;;;;;;;;;;;;;;5015881;28;19940;-93
2022/08/19 12:46:04;;;;;;;;;;;;;;;;;;5039070;28;19921;-93
2022/08/19 12:48:29;;;;;;;;;;;;;;;;;;5022447;28;19921;-94
2022/08/19 12:50:55;;;;;;;;;;;;;;;;;;5042463;28;19921;-92
2022/08/19 12:53:20;;;;;;;;;;;;;;;;;;5040031;28;19917;-90
2022/08/19 12:55:46;;;;;;;;;;;;;;;;;;5021333;28;19913;-93
2022/08/19 12:58:12;;;;;;;;;;;;;;;;;;5020982;28;19968;-91
2022/08/19 13:00:38;;;;;;;;;;;;;;;;;;5018509;28;19917;-92
2022/08/19 13:03:03;;;;;;;;;;;;;;;;;;5017180;28;19918;-91
2022/08/19 13:05:33;;;;;;;;;;;;;;;;;;5038669;28;19924;-91
2022/08/19 13:08:00;;;;;;;;;;;;;;;;;;5017293;28;19928;-93
2022/08/19 13:10:29;;;;;;;;;;;;;;;;;;5035972;28;19978;-90
2022/08/19 13:12:55;;;;;;;;;;;;;;;;;;5039343;28;20296;-90
2022/08/19 13:15:28;;;;;;;;;;;;;;;;;;5023101;28;19923;-92
2022/08/19 13:18:02;;;;;;;;;;;;;;;;;;5039810;28;19924;-91
2022/08/19 13:20:28;;;;;;;;;;;;;;;;;;5036966;28;19988;-91
2022/08/19 13:22:56;;;;;;;;;;;;;;;;;;5040083;28;19909;-90
2022/08/19 13:25:22;;;;;;;;;;;;;;;;;;5020997;28;19921;-91
2022/08/19 13:27:50;;;;;;;;;;;;;;;;;;5019557;28;19909;-91
2022/08/19 13:33:15;;;;;;;;;;;;;;;;;;5035637;28;20396;-92
2022/08/19 13:35:46;;;;;;;;;;;;;;;;;;5031927;28;19963;-91
2022/08/19 13:38:13;;;;;;;;;;;;;;;;;;5041455;28;19977;-93
2022/08/19 13:40:39;;;;;;;;;;;;;;;;;;5016110;28;19917;-92
2022/08/19 13:43:04;;;;;;;;;;;;;;;;;;5016747;28;19928;-93
2022/08/19 13:45:33;;;;;;;;;;;;;;;;;;5034545;28;19917;-93
2022/08/19 13:47:58;;;;;;;;;;;;;;;;;;5016495;28;19917;-93
2022/08/19 13:50:26;;;;;;;;;;;;;;;;;;5016375;28;20284;-92
2022/08/19 13:52:52;;;;;;;;;;;;;;;;;;5017104;28;19917;-91
2022/08/19 13:55:17;;;;;;;;;;;;;;;;;;5016874;28;19917;-92
2022/08/19 13:57:43;;;;;;;;;;;;;;;;;;5008825;28;19933;-93
2022/08/19 14:00:11;;;;;;;;;;;;;;;;;;5014447;28;19926;-94
2022/08/19 14:02:37;;;;;;;;;;;;;;;;;;4997225;28;20060;-93
2022/08/19 14:05:04;;;;;;;;;;;;;;;;;;5014247;28;20389;-93
2022/08/19 14:07:29;;;;;;;;;;;;;;;;;;4996927;28;19972;-93
2022/08/19 14:09:54;;;;;;;;;;;;;;;;;;4996224;28;19924;-94
2022/08/19 14:12:20;;;;;;;;;;;;;;;;;;4997131;28;19918;-92
2022/08/19 14:14:46;;;;;;;;;;;;;;;;;;4996686;28;19928;-93
2022/08/19 14:17:11;;;;;;;;;;;;;;;;;;5014366;28;20439;-92
2022/08/19 14:19:37;;;;;;;;;;;;;;;;;;4996496;28;20361;-92
2022/08/19 14:22:02;;;;;;;;;;;;;;;;;;5012554;28;20024;-93
2022/08/19 14:24:28;;;;;;;;;;;;;;;;;;4996297;28;19956;-93
2022/08/19 14:26:53;;;;;;;;;;;;;;;;;;4996591;28;19924;-92
2022/08/19 14:29:19;;;;;;;;;;;;;;;;;;4996004;28;19913;-93
2022/08/19 14:31:44;;;;;;;;;;;;;;;;;;5012620;28;19964;-93
2022/08/19 14:34:10;;;;;;;;;;;;;;;;;;5012921;28;19961;-92
2022/08/19 14:36:36;;;;;;;;;;;;;;;;;;4996426;28;19921;-94
2022/08/19 14:39:02;;;;;;;;;;;;;;;;;;4996033;28;20397;-93
2022/08/19 14:41:27;;;;;;;;;;;;;;;;;;5013418;28;19914;-92
2022/08/19 14:43:53;;;;;;;;;;;;;;;;;;4995976;28;19925;-94
2022/08/19 14:46:20;;;;;;;;;;;;;;;;;;4996289;28;19918;-93
2022/08/19 14:48:46;;;;;;;;;;;;;;;;;;4999366;28;19924;-94
2022/08/19 14:51:11;;;;;;;;;;;;;;;;;;4995667;28;19922;-92
2022/08/19 14:53:37;;;;;;;;;;;;;;;;;;5012466;28;19921;-93
2022/08/19 14:56:07;;;;;;;;;;;;;;;;;;5013480;28;19917;-92
2022/08/19 14:58:32;;;;;;;;;;;;;;;;;;4996612;28;19961;-91
2022/08/19 15:00:59;;;;;;;;;;;;;;;;;;5013400;28;20393;-92
2022/08/19 15:03:25;;;;;;;;;;;;;;;;;;4996072;28;20265;-93
2022/08/19 15:05:51;;;;;;;;;;;;;;;;;;5013566;28;19918;-92
2022/08/19 15:08:16;;;;;;;;;;;;;;;;;;5013139;28;19918;-93
2022/08/19 15:10:42;;;;;;;;;;;;;;;;;;5012830;28;20407;-93
2022/08/19 15:13:09;;;;;;;;;;;;;;;;;;5012238;28;19921;-91
2022/08/19 15:15:34;;;;;;;;;;;;;;;;;;5013675;28;19925;-92
2022/08/19 15:18:02;;;;;;;;;;;;;;;;;;5013737;28;19918;-94
2022/08/19 15:20:28;;;;;;;;;;;;;;;;;;4995521;28;20391;-93
2022/08/19 15:22:53;;;;;;;;;;;;;;;;;;4996370;28;19994;-93
2022/08/19 15:25:20;;;;;;;;;;;;;;;;;;5013429;28;19922;-94
2022/08/19 15:27:45;;;;;;;;;;;;;;;;;;5013312;28;19922;-92
2022/08/19 15:30:11;;;;;;;;;;;;;;;;;;4995109;28;20012;-92
2022/08/19 15:32:37;;;;;;;;;;;;;;;;;;5013290;28;19917;-92
2022/08/19 15:35:04;;;;;;;;;;;;;;;;;;5013056;28;20016;-92
2022/08/19 15:37:30;;;;;;;;;;;;;;;;;;5013650;28;20018;-92
2022/08/19 15:39:55;;;;;;;;;;;;;;;;;;5012089;28;20412;-91
2022/08/19 15:42:21;;;;;;;;;;;;;;;;;;4995393;28;19917;-93
2022/08/19 15:44:46;;;;;;;;;;;;;;;;;;5013025;28;19925;-92
2022/08/19 15:47:12;;;;;;;;;;;;;;;;;;4996114;28;19941;-93
2022/08/19 15:49:38;;;;;;;;;;;;;;;;;;4995056;28;20357;-93
2022/08/19 15:52:06;;;;;;;;;;;;;;;;;;4997378;28;19917;-94
2022/08/19 15:54:32;;;;;;;;;;;;;;;;;;5016656;28;19940;-92
2022/08/19 16:07:55;;;;;;;;;;;;;;;;;;5036521;28;20403;-92
2022/08/19 16:10:21;;;;;;;;;;;;;;;;;;5035471;28;19917;-94
2022/08/19 16:12:47;;;;;;;;;;;;;;;;;;5036035;28;20329;-92
2022/08/19 16:15:15;;;;;;;;;;;;;;;;;;5018107;28;20292;-92
2022/08/19 16:17:40;;;;;;;;;;;;;;;;;;5035920;28;19971;-93
2022/08/19 16:20:08;;;;;;;;;;;;;;;;;;5018184;28;19917;-93
2022/08/19 16:22:33;;;;;;;;;;;;;;;;;;5017710;28;19928;-92
2022/08/19 16:24:59;;;;;;;;;;;;;;;;;;5034095;28;19920;-92
2022/08/19 16:27:25;;;;;;;;;;;;;;;;;;5018039;28;19917;-92
2022/08/19 16:29:51;;;;;;;;;;;;;;;;;;5017562;28;20004;-92
2022/08/19 16:32:16;;;;;;;;;;;;;;;;;;5017926;28;19917;-93
2022/08/19 16:34:42;;;;;;;;;;;;;;;;;;5035536;28;20396;-93
2022/08/19 16:37:08;;;;;;;;;;;;;;;;;;5018057;28;19983;-92
2022/08/19 16:39:34;;;;;;;;;;;;;;;;;;5034199;28;20031;-93
2022/08/19 16:41:59;;;;;;;;;;;;;;;;;;5017523;28;20385;-92
2022/08/19 16:44:26;;;;;;;;;;;;;;;;;;5017543;28;19921;-94
2022/08/19 16:46:52;;;;;;;;;;;;;;;;;;5017702;28;19917;-91
2022/08/19 16:49:18;;;;;;;;;;;;;;;;;;5033470;28;20283;-93
2022/08/19 16:51:44;;;;;;;;;;;;;;;;;;5017387;28;19917;-93
2022/08/19 16:54:09;;;;;;;;;;;;;;;;;;5017770;28;20376;-93
2022/08/19 16:56:35;;;;;;;;;;;;;;;;;;5035185;28;20012;-91
2022/08/19 16:59:01;;;;;;;;;;;;;;;;;;4999136;28;19955;-91
2022/08/19 17:01:27;;;;;;;;;;;;;;;;;;4997657;28;20387;-91
2022/08/19 17:03:53;;;;;;;;;;;;;;;;;;4997329;28;19960;-90
2022/08/19 17:06:20;;;;;;;;;;;;;;;;;;4997545;28;19918;-93
2022/08/19 17:08:46;;;;;;;;;;;;;;;;;;4997886;28;19957;-92
2022/08/19 17:11:11;;;;;;;;;;;;;;;;;;5014586;28;19987;-91
2022/08/19 17:13:37;;;;;;;;;;;;;;;;;;4997844;28;19917;-92
2022/08/19 17:16:03;;;;;;;;;;;;;;;;;;4997559;28;19917;-91
2022/08/19 17:18:29;;;;;;;;;;;;;;;;;;4997387;28;20008;-92
2022/08/19 17:20:55;;;;;;;;;;;;;;;;;;4997171;28;20346;-91
2022/08/19 17:23:22;;;;;;;;;;;;;;;;;;4997450;28;19955;-90
2022/08/19 17:25:49;;;;;;;;;;;;;;;;;;4997694;28;20008;-93
2022/08/19 17:28:20;;;;;;;;;;;;;;;;;;5015545;28;19979;-92
2022/08/19 17:30:47;;;;;;;;;;;;;;;;;;5014899;28;20376;-92
2022/08/19 17:33:13;;;;;;;;;;;;;;;;;;4998022;28;19922;-91
2022/08/19 17:35:42;;;;;;;;;;;;;;;;;;4992639;28;19928;-92
2022/08/19 17:38:08;;;;;;;;;;;;;;;;;;5015829;28;19930;-91